Time;durP1;ratioP1;P1;durP2;ratioP2;P2;SDS_P1;SDS_P2;PMS_P1;PMS_P2;Temp;Humidity;BMP_temperature;BMP_pressure;BME280_temperature;BME280_humidity;BME280_pressure;Samples;Min_cycle;Max_cycle;Signal;HPM_P1;HPM_P2
2024/02/12 00:00:21;;;;;;;8.27;3.57;;;9.30;84.80;;;;;;5016490;28;20404;-76
2024/02/12 00:02:47;;;;;;;6.85;4.00;;;9.30;85.20;;;;;;5018106;28;20519;-75
2024/02/12 00:05:13;;;;;;;5.18;3.80;;;9.30;86.30;;;;;;5016130;28;20884;-75
2024/02/12 00:07:39;;;;;;;8.63;4.75;;;9.20;86.30;;;;;;5014296;28;20455;-76
2024/02/12 00:10:10;;;;;;;6.73;4.30;;;9.30;86.50;;;;;;5013257;28;20427;-75
2024/02/12 00:12:45;;;;;;;7.70;4.38;;;9.20;86.60;;;;;;5013567;28;20409;-74
2024/02/12 00:15:11;;;;;;;6.50;4.07;;;9.20;86.70;;;;;;5013667;28;20377;-75
2024/02/12 00:17:41;;;;;;;8.95;4.50;;;9.30;86.10;;;;;;5017137;28;20388;-75
2024/02/12 00:20:11;;;;;;;7.00;4.78;;;9.30;85.80;;;;;;5028894;28;20736;-74
2024/02/12 00:22:39;;;;;;;9.38;4.38;;;9.20;86.50;;;;;;5013663;28;20435;-74
2024/02/12 00:25:05;;;;;;;6.00;4.70;;;9.20;87.20;;;;;;5013743;28;20876;-76
2024/02/12 00:27:31;;;;;;;7.80;4.40;;;9.30;86.50;;;;;;5013489;28;20915;-73
2024/02/12 00:29:58;;;;;;;7.00;4.37;;;9.30;85.10;;;;;;5014936;28;20444;-74
2024/02/12 00:32:24;;;;;;;7.78;4.35;;;9.30;86.40;;;;;;5014454;28;20392;-75
2024/02/12 00:34:49;;;;;;;7.90;4.40;;;9.30;86.40;;;;;;5013037;28;20380;-74
2024/02/12 00:37:15;;;;;;;7.40;4.57;;;9.30;86.90;;;;;;5012853;28;20840;-75
2024/02/12 00:39:40;;;;;;;9.05;4.90;;;9.20;88.40;;;;;;5013097;28;20708;-75
2024/02/12 00:42:12;;;;;;;7.55;5.07;;;9.30;87.10;;;;;;5011512;28;20961;-75
2024/02/12 00:44:40;;;;;;;7.03;5.00;;;9.40;85.10;;;;;;5012494;28;20902;-73
2024/02/12 00:47:06;;;;;;;8.02;4.90;;;9.30;86.50;;;;;;5012502;28;20467;-74
2024/02/12 00:49:32;;;;;;;11.90;5.67;;;9.30;87.00;;;;;;5012593;28;20555;-72
2024/02/12 00:51:58;;;;;;;10.90;5.50;;;9.30;85.30;;;;;;5012479;28;20926;-75
2024/02/12 00:54:25;;;;;;;8.20;5.60;;;9.40;84.20;;;;;;5012469;28;20373;-76
2024/02/12 00:56:50;;;;;;;10.05;5.93;;;9.40;84.30;;;;;;5012881;28;20396;-74
2024/02/12 00:59:17;;;;;;;9.50;6.10;;;9.40;84.10;;;;;;5012371;28;20447;-73
2024/02/12 01:01:46;;;;;;;9.00;5.68;;;9.40;84.20;;;;;;5012439;28;20385;-75
2024/02/12 01:04:12;;;;;;;11.23;6.47;;;9.30;85.30;;;;;;5016166;28;20396;-74
2024/02/12 01:06:43;;;;;;;10.35;6.38;;;9.30;83.50;;;;;;5010914;28;20413;-73
2024/02/12 01:09:12;;;;;;;8.52;5.78;;;9.30;84.90;;;;;;5011124;28;20409;-73
2024/02/12 01:11:38;;;;;;;11.05;7.00;;;9.20;85.60;;;;;;5012511;28;20377;-75
2024/02/12 01:14:06;;;;;;;9.40;6.75;;;9.30;84.80;;;;;;5011819;28;20389;-74
2024/02/12 01:16:32;;;;;;;10.20;7.30;;;9.20;86.40;;;;;;5012370;28;20479;-75
2024/02/12 01:18:58;;;;;;;16.27;8.38;;;9.30;86.00;;;;;;5012243;28;20492;-75
2024/02/12 01:21:26;;;;;;;12.95;7.90;;;9.30;85.60;;;;;;5012515;28;20384;-72
2024/02/12 01:23:51;;;;;;;16.08;8.43;;;9.30;85.50;;;;;;5012132;28;20751;-74
2024/02/12 01:26:17;;;;;;;14.32;8.68;;;9.40;84.70;;;;;;5010594;28;20407;-74
2024/02/12 01:28:43;;;;;;;14.80;9.00;;;9.40;84.40;;;;;;5011928;28;20420;-74
2024/02/12 01:31:17;;;;;;;14.80;8.50;;;9.30;85.30;;;;;;5012309;28;20466;-73
2024/02/12 01:33:46;;;;;;;18.60;9.05;;;9.30;87.10;;;;;;5012033;28;20388;-74
2024/02/12 01:36:13;;;;;;;17.70;9.38;;;9.30;86.70;;;;;;5011760;28;20377;-73
2024/02/12 01:38:39;;;;;;;16.20;9.95;;;9.30;86.70;;;;;;5011747;28;20388;-74
2024/02/12 01:41:04;;;;;;;16.20;9.63;;;9.30;87.30;;;;;;5012064;28;20381;-74
2024/02/12 01:43:30;;;;;;;18.43;10.90;;;9.40;87.10;;;;;;5011679;28;20957;-74
2024/02/12 01:45:59;;;;;;;19.53;9.40;;;9.30;87.90;;;;;;5011805;28;20893;-75
2024/02/12 01:48:26;;;;;;;18.17;10.00;;;9.30;88.30;;;;;;5011656;28;20385;-74
2024/02/12 01:50:52;;;;;;;19.70;11.15;;;9.30;89.20;;;;;;5011942;28;20787;-75
2024/02/12 01:53:19;;;;;;;21.00;11.63;;;9.30;89.50;;;;;;5011855;28;20763;-75
2024/02/12 01:55:45;;;;;;;22.45;12.27;;;9.20;90.60;;;;;;5011946;28;20392;-73
2024/02/12 01:58:16;;;;;;;20.30;12.10;;;9.30;89.90;;;;;;5011667;28;20817;-72
2024/02/12 02:00:45;;;;;;;24.73;12.30;;;9.20;90.90;;;;;;5011724;28;20748;-73
2024/02/12 02:03:11;;;;;;;22.88;13.00;;;9.20;90.60;;;;;;5012106;28;20523;-73
2024/02/12 02:05:37;;;;;;;26.20;14.10;;;9.30;90.70;;;;;;5011504;28;20385;-75
2024/02/12 02:08:03;;;;;;;23.95;13.27;;;9.30;90.20;;;;;;5011453;28;20944;-73
2024/02/12 02:10:29;;;;;;;26.75;12.95;;;9.20;91.30;;;;;;5011207;28;20539;-72
2024/02/12 02:12:56;;;;;;;24.65;13.52;;;9.20;92.40;;;;;;5011104;28;20415;-74
2024/02/12 02:15:22;;;;;;;25.48;12.75;;;9.20;92.90;;;;;;5010792;28;20385;-74
2024/02/12 02:17:48;;;;;;;28.83;14.25;;;9.30;91.20;;;;;;5010864;28;20411;-73
2024/02/12 02:20:15;;;;;;;26.33;14.93;;;9.30;91.80;;;;;;5030497;22;20440;-72
2024/02/12 02:22:40;;;;;;;28.40;15.27;;;9.30;91.10;;;;;;5015720;28;20380;-73
2024/02/12 02:25:09;;;;;;;28.13;15.70;;;9.30;91.10;;;;;;5016394;28;20383;-73
2024/02/12 02:27:35;;;;;;;35.00;17.23;;;9.20;92.20;;;;;;5016070;28;20385;-73
2024/02/12 02:30:07;;;;;;;29.50;16.77;;;9.20;91.60;;;;;;5017472;28;20416;-74
2024/02/12 02:32:35;;;;;;;35.03;18.10;;;9.20;92.00;;;;;;5016853;28;20392;-73
2024/02/12 02:35:01;;;;;;;34.05;17.30;;;9.20;92.10;;;;;;5015097;28;20721;-71
2024/02/12 02:37:27;;;;;;;37.13;18.83;;;9.20;92.40;;;;;;5015267;28;20380;-73
2024/02/12 02:39:52;;;;;;;43.90;20.97;;;9.20;93.80;;;;;;5014154;28;20400;-74
2024/02/12 02:42:24;;;;;;;39.53;21.17;;;9.10;93.40;;;;;;5016972;28;20751;-74
2024/02/12 02:44:50;;;;;;;44.92;21.02;;;9.20;92.20;;;;;;5013927;28;20401;-72
2024/02/12 02:47:16;;;;;;;37.80;20.90;;;9.20;91.90;;;;;;5016056;28;20407;-73
2024/02/12 02:49:41;;;;;;;39.55;21.30;;;9.20;92.60;;;;;;5015094;28;20423;-74
2024/02/12 02:52:07;;;;;;;39.73;20.73;;;9.20;91.60;;;;;;5014987;28;20393;-74
2024/02/12 02:54:33;;;;;;;43.73;21.47;;;9.20;91.40;;;;;;5014587;28;20374;-73
2024/02/12 02:57:00;;;;;;;44.55;22.45;;;9.20;92.00;;;;;;5013161;28;20397;-74
2024/02/12 02:59:26;;;;;;;47.80;23.77;;;9.20;92.40;;;;;;5013312;28;20399;-74
2024/02/12 03:01:52;;;;;;;45.13;22.95;;;9.10;93.60;;;;;;5015172;28;20393;-75
2024/02/12 03:04:17;;;;;;;41.42;23.02;;;9.10;93.70;;;;;;5015452;28;20392;-73
2024/02/12 03:06:43;;;;;;;47.55;23.42;;;9.10;93.10;;;;;;5016429;28;20420;-74
2024/02/12 03:09:10;;;;;;;49.17;24.73;;;9.10;92.70;;;;;;5015340;28;20423;-74
2024/02/12 03:11:37;;;;;;;45.80;24.50;;;9.10;93.10;;;;;;5015053;28;20419;-74
2024/02/12 03:14:03;;;;;;;42.22;24.42;;;9.10;92.20;;;;;;5014973;28;20392;-73
2024/02/12 03:16:29;;;;;;;50.20;25.23;;;9.10;92.40;;;;;;5014543;28;20388;-73
2024/02/12 03:18:55;;;;;;;46.65;25.52;;;9.10;92.40;;;;;;5014962;28;20395;-73
2024/02/12 03:21:22;;;;;;;51.88;26.02;;;9.10;93.00;;;;;;5014572;28;20419;-72
2024/02/12 03:23:49;;;;;;;48.60;27.30;;;9.10;93.00;;;;;;5013258;28;20400;-73
2024/02/12 03:26:17;;;;;;;50.65;26.90;;;9.10;92.60;;;;;;5013182;28;20468;-73
2024/02/12 03:28:43;;;;;;;47.42;26.27;;;9.10;92.50;;;;;;5014046;28;20401;-73
2024/02/12 03:31:12;;;;;;;48.13;26.38;;;9.10;92.80;;;;;;5013714;28;20396;-73
2024/02/12 03:33:38;;;;;;;49.33;26.05;;;9.10;92.20;;;;;;5014358;28;20389;-73
2024/02/12 03:36:05;;;;;;;46.08;25.42;;;9.10;91.40;;;;;;5013990;28;20412;-72
2024/02/12 03:38:30;;;;;;;45.33;26.00;;;9.10;89.70;;;;;;5017009;28;20909;-72
2024/02/12 03:40:56;;;;;;;49.80;25.50;;;9.20;88.20;;;;;;5017829;28;20393;-74
2024/02/12 03:43:25;;;;;;;51.63;26.08;;;9.10;88.10;;;;;;5017292;28;20442;-74
2024/02/12 03:45:57;;;;;;;51.55;26.13;;;9.10;88.20;;;;;;5016333;28;20397;-72
2024/02/12 04:02:04;;;;;;;53.10;27.52;;;8.80;92.80;;;;;;5017940;28;20886;-73
2024/02/12 04:04:30;;;;;;;52.93;26.57;;;8.80;92.10;;;;;;5018520;28;20397;-73
2024/02/12 04:07:00;;;;;;;51.80;28.10;;;8.90;91.70;;;;;;5019522;28;20508;-73
2024/02/12 04:09:26;;;;;;;50.85;27.65;;;8.90;91.50;;;;;;5018531;28;20410;-74
2024/02/12 04:11:52;;;;;;;49.67;28.23;;;8.80;92.60;;;;;;5018553;28;20384;-72
2024/02/12 04:14:18;;;;;;;56.88;28.92;;;8.90;92.30;;;;;;5017281;28;20395;-73
2024/02/12 04:16:51;;;;;;;55.80;28.33;;;8.90;92.80;;;;;;5015698;28;20401;-73
2024/02/12 04:19:22;;;;;;;53.20;27.75;;;8.90;92.00;;;;;;5015678;28;20417;-74
2024/02/12 04:21:49;;;;;;;54.58;28.58;;;8.90;92.90;;;;;;5015302;28;20504;-72
2024/02/12 04:24:15;;;;;;;54.83;28.40;;;8.90;92.00;;;;;;5016926;28;20389;-73
2024/02/12 04:26:40;;;;;;;58.03;28.67;;;8.90;91.30;;;;;;5016696;28;20385;-72
2024/02/12 04:29:07;;;;;;;67.80;30.30;;;8.80;93.30;;;;;;5016621;28;20411;-72
2024/02/12 04:31:35;;;;;;;51.55;28.55;;;8.70;93.80;;;;;;5017633;28;20400;-72
2024/02/12 04:34:01;;;;;;;59.80;30.40;;;8.80;94.30;;;;;;5018243;28;20472;-73
2024/02/12 04:36:27;;;;;;;57.78;30.15;;;8.70;95.10;;;;;;5016893;28;20381;-73
2024/02/12 04:38:53;;;;;;;66.00;31.00;;;8.70;96.00;;;;;;5016852;28;20404;-73
2024/02/12 04:41:19;;;;;;;57.30;30.40;;;8.70;96.10;;;;;;5016383;28;20759;-72
2024/02/12 04:43:46;;;;;;;68.22;30.77;;;8.70;96.00;;;;;;5016286;28;20384;-73
2024/02/12 04:46:12;;;;;;;64.80;30.92;;;8.60;96.70;;;;;;5016507;28;20389;-73
2024/02/12 04:48:38;;;;;;;63.40;30.80;;;8.60;97.00;;;;;;5014117;28;20443;-74
2024/02/12 04:51:03;;;;;;;62.22;32.45;;;8.50;97.30;;;;;;5015809;28;20389;-75
2024/02/12 04:53:29;;;;;;;65.53;32.90;;;8.60;97.00;;;;;;5013949;28;20389;-73
2024/02/12 04:55:55;;;;;;;61.22;31.60;;;8.60;97.30;;;;;;5013905;28;20421;-71
2024/02/12 04:58:22;;;;;;;63.90;32.42;;;8.60;98.10;;;;;;5013444;28;20385;-73
2024/02/12 05:00:48;;;;;;;64.60;33.30;;;8.50;97.90;;;;;;5014477;28;20748;-73
2024/02/12 05:03:16;;;;;;;61.63;30.77;;;8.50;98.90;;;;;;5014633;28;20443;-73
2024/02/12 05:05:42;;;;;;;67.57;33.00;;;8.50;99.40;;;;;;5014605;28;21014;-73
2024/02/12 05:08:07;;;;;;;76.13;34.47;;;8.40;99.40;;;;;;5017691;28;20389;-74
2024/02/12 05:10:33;;;;;;;66.20;33.00;;;8.30;99.90;;;;;;5017517;28;20492;-72
2024/02/12 05:12:59;;;;;;;69.97;34.80;;;8.30;99.90;;;;;;5016633;28;20381;-72
2024/02/12 05:15:26;;;;;;;72.85;32.67;;;8.30;99.90;;;;;;5018099;28;20389;-75
2024/02/12 05:17:54;;;;;;;69.00;34.15;;;8.20;99.90;;;;;;5018398;28;20368;-74
2024/02/12 05:23:09;;;;;;;69.45;35.03;;;8.30;99.90;;;;;;5017947;28;20473;-73
2024/02/12 05:25:35;;;;;;;68.25;33.00;;;8.30;99.90;;;;;;5017156;28;20388;-72
2024/02/12 05:28:01;;;;;;;65.60;34.05;;;8.50;99.90;;;;;;5017610;28;20393;-72
2024/02/12 05:30:27;;;;;;;62.50;32.05;;;8.50;98.00;;;;;;5016118;28;20545;-71
2024/02/12 05:32:52;;;;;;;58.25;31.63;;;8.60;97.40;;;;;;5016644;28;20806;-74
2024/02/12 05:35:18;;;;;;;64.32;32.70;;;8.50;97.10;;;;;;5014826;28;20467;-74
2024/02/12 05:37:44;;;;;;;63.70;33.13;;;8.40;96.90;;;;;;5013397;28;20385;-72
2024/02/12 05:40:10;;;;;;;68.27;33.33;;;8.40;97.40;;;;;;5014782;28;20393;-74
2024/02/12 05:42:38;;;;;;;65.05;32.80;;;8.40;97.00;;;;;;5013552;28;20408;-73
2024/02/12 05:45:05;;;;;;;63.80;33.70;;;8.50;95.60;;;;;;5016165;28;20543;-74
2024/02/12 05:47:30;;;;;;;62.75;31.92;;;8.40;96.80;;;;;;5015875;28;20385;-73
2024/02/12 05:49:56;;;;;;;64.55;31.30;;;8.20;98.40;;;;;;5015555;28;20415;-72
2024/02/12 05:52:21;;;;;;;59.45;32.30;;;8.30;98.90;;;;;;5016152;28;20412;-73
2024/02/12 05:54:47;;;;;;;59.47;31.77;;;8.40;98.90;;;;;;5016695;28;20467;-72
2024/02/12 05:57:13;;;;;;;63.08;31.38;;;8.40;97.30;;;;;;5017479;28;20381;-75
2024/02/12 05:59:39;;;;;;;61.00;30.67;;;8.30;97.40;;;;;;5015535;28;20389;-73
2024/02/12 06:02:05;;;;;;;62.03;31.57;;;8.10;97.80;;;;;;5015485;28;20397;-73
2024/02/12 06:04:31;;;;;;;60.27;31.27;;;8.00;99.30;;;;;;5017190;28;20454;-73
2024/02/12 06:06:59;;;;;;;69.97;30.80;;;8.00;99.90;;;;;;5016441;28;20385;-74
2024/02/12 06:09:26;;;;;;;62.75;30.08;;;7.90;99.60;;;;;;5016313;28;20427;-72
2024/02/12 06:11:53;;;;;;;60.25;30.17;;;7.90;97.40;;;;;;5017151;28;20385;-73
2024/02/12 06:14:19;;;;;;;61.35;30.20;;;8.00;96.40;;;;;;5020296;28;20399;-73
2024/02/12 06:16:45;;;;;;;56.50;30.30;;;7.80;97.40;;;;;;5019976;28;20385;-74
2024/02/12 06:19:11;;;;;;;52.53;27.80;;;7.80;97.30;;;;;;5021306;28;20435;-73
2024/02/12 06:21:42;;;;;;;61.65;31.40;;;7.80;96.50;;;;;;5019742;28;20431;-72
2024/02/12 06:24:08;;;;;;;62.42;29.40;;;7.70;97.20;;;;;;5019838;28;20376;-73
2024/02/12 06:26:34;;;;;;;57.90;29.27;;;7.70;97.40;;;;;;5021960;28;20810;-74
2024/02/12 06:28:59;;;;;;;54.23;29.63;;;7.70;97.10;;;;;;5020255;28;20409;-73
2024/02/12 06:31:27;;;;;;;64.43;30.97;;;7.60;98.30;;;;;;5018681;28;20385;-76
2024/02/12 06:33:53;;;;;;;65.05;31.20;;;7.70;98.30;;;;;;5017484;28;20385;-73
2024/02/12 06:36:19;;;;;;;63.03;30.65;;;7.70;98.60;;;;;;5020019;28;20384;-73
2024/02/12 06:38:44;;;;;;;61.37;30.77;;;7.70;98.30;;;;;;5020208;28;20415;-73
2024/02/12 06:41:10;;;;;;;61.57;30.03;;;7.90;97.60;;;;;;5013391;28;20393;-74
2024/02/12 06:43:35;;;;;;;61.83;31.10;;;8.00;94.30;;;;;;5013787;28;20392;-73
2024/02/12 06:46:01;;;;;;;63.90;29.80;;;8.10;90.60;;;;;;5012588;28;20447;-74
2024/02/12 06:48:28;;;;;;;62.47;30.90;;;8.30;89.30;;;;;;5016024;28;20486;-73
2024/02/12 06:50:53;;;;;;;64.13;29.77;;;8.30;88.50;;;;;;5014020;28;20400;-72
2024/02/12 06:53:19;;;;;;;60.15;29.35;;;8.40;85.40;;;;;;5015561;28;20408;-73
2024/02/12 06:55:46;;;;;;;62.95;30.92;;;8.50;83.90;;;;;;5020303;28;20753;-73
2024/02/12 06:58:12;;;;;;;54.67;28.27;;;8.50;84.10;;;;;;5016870;28;20408;-73
2024/02/12 07:00:37;;;;;;;58.73;30.97;;;8.50;84.60;;;;;;5015246;28;20396;-73
2024/02/12 07:03:04;;;;;;;56.30;29.57;;;8.50;85.60;;;;;;5015048;28;20388;-73
2024/02/12 07:05:30;;;;;;;61.50;30.17;;;8.40;87.20;;;;;;5014598;28;20894;-73
2024/02/12 07:07:56;;;;;;;64.60;31.17;;;8.50;85.90;;;;;;5013775;28;20389;-73
2024/02/12 07:10:25;;;;;;;63.47;29.83;;;8.60;84.80;;;;;;5014722;28;20412;-72
2024/02/12 07:12:51;;;;;;;60.20;31.52;;;8.60;84.80;;;;;;5018221;28;20876;-72
2024/02/12 07:15:17;;;;;;;59.05;30.15;;;8.60;84.70;;;;;;5017054;28;20400;-73
2024/02/12 07:17:43;;;;;;;63.28;30.75;;;8.60;84.10;;;;;;5017045;28;20395;-73
2024/02/12 07:20:09;;;;;;;59.10;29.80;;;8.50;86.70;;;;;;5016235;28;20401;-72
2024/02/12 07:22:35;;;;;;;59.60;29.75;;;8.70;84.30;;;;;;5017513;28;20447;-71
2024/02/12 07:25:01;;;;;;;58.93;29.83;;;8.70;83.10;;;;;;5019798;28;20516;-72
2024/02/12 07:27:27;;;;;;;59.92;30.60;;;8.70;83.40;;;;;;5016635;28;20396;-73
2024/02/12 07:29:53;;;;;;;56.78;29.60;;;8.80;81.80;;;;;;5017171;28;20413;-72
2024/02/12 07:32:19;;;;;;;53.07;26.13;;;8.90;81.50;;;;;;5017751;28;20902;-73
2024/02/12 07:34:45;;;;;;;61.55;29.00;;;9.00;79.00;;;;;;5016999;28;20474;-73
2024/02/12 07:37:11;;;;;;;48.47;27.70;;;9.00;79.90;;;;;;5017024;28;20878;-73
2024/02/12 07:39:39;;;;;;;54.40;28.13;;;9.00;79.70;;;;;;5017644;28;20413;-74
2024/02/12 07:42:11;;;;;;;57.42;27.30;;;8.90;80.40;;;;;;5017316;28;20479;-73
2024/02/12 07:44:37;;;;;;;57.60;27.67;;;8.90;82.80;;;;;;5017264;28;20395;-73
2024/02/12 07:47:05;;;;;;;49.38;25.75;;;9.00;80.50;;;;;;5017255;28;20389;-73
2024/02/12 07:49:31;;;;;;;49.15;24.90;;;9.10;80.10;;;;;;5016382;28;20412;-74
2024/02/12 07:51:59;;;;;;;49.97;25.13;;;9.10;79.80;;;;;;5016921;28;20989;-73
2024/02/12 07:54:26;;;;;;;53.20;25.63;;;9.20;79.70;;;;;;5016686;28;20465;-73
2024/02/12 07:56:53;;;;;;;52.03;24.10;;;9.20;78.60;;;;;;5016913;28;20395;-73
2024/02/12 07:59:19;;;;;;;42.78;22.75;;;9.30;76.00;;;;;;5016195;28;20388;-73
2024/02/12 08:01:45;;;;;;;50.13;24.65;;;9.30;75.60;;;;;;5016556;28;20392;-73
2024/02/12 08:04:11;;;;;;;45.08;24.02;;;9.30;76.70;;;;;;5016914;28;20400;-72
2024/02/12 08:06:38;;;;;;;49.13;24.52;;;9.30;77.60;;;;;;5016797;28;20476;-71
2024/02/12 08:09:04;;;;;;;48.00;23.73;;;9.30;76.00;;;;;;5015720;28;20459;-72
2024/02/12 08:11:30;;;;;;;46.90;23.40;;;9.30;76.70;;;;;;5016829;28;20389;-72
2024/02/12 08:13:56;;;;;;;45.13;23.42;;;9.40;75.40;;;;;;5017393;28;20400;-73
2024/02/12 08:16:22;;;;;;;51.70;24.60;;;9.40;74.60;;;;;;5017740;28;20423;-72
2024/02/12 08:18:48;;;;;;;44.13;22.90;;;9.30;76.40;;;;;;5029496;22;20545;-75
2024/02/12 08:21:13;;;;;;;48.67;21.70;;;9.50;74.70;;;;;;5014945;28;20904;-75
2024/02/12 08:23:39;;;;;;;42.45;21.60;;;9.50;75.20;;;;;;5013370;28;20446;-74
2024/02/12 08:26:05;;;;;;;44.53;22.80;;;9.50;74.60;;;;;;5014448;28;20800;-74
2024/02/12 08:28:31;;;;;;;41.97;22.10;;;9.50;74.40;;;;;;5013974;28;20388;-75
2024/02/12 08:30:57;;;;;;;52.43;22.83;;;9.60;72.70;;;;;;5014008;28;20875;-75
2024/02/12 08:33:26;;;;;;;48.83;23.27;;;9.70;71.20;;;;;;5021091;28;20392;-73
2024/02/12 08:35:52;;;;;;;43.53;22.57;;;9.70;72.20;;;;;;5013430;28;20396;-76
2024/02/12 08:38:18;;;;;;;47.63;23.13;;;9.60;71.90;;;;;;5013469;28;20447;-73
2024/02/12 08:40:44;;;;;;;39.95;21.65;;;9.70;72.50;;;;;;5013374;28;20404;-75
2024/02/12 08:43:09;;;;;;;46.72;22.63;;;9.70;71.90;;;;;;5013463;28;20392;-74
2024/02/12 08:45:35;;;;;;;40.17;21.90;;;9.70;72.90;;;;;;5013226;28;20859;-75
2024/02/12 08:48:01;;;;;;;44.45;22.77;;;9.70;73.20;;;;;;5013707;28;20400;-75
2024/02/12 08:50:26;;;;;;;44.95;22.58;;;9.80;72.30;;;;;;5014001;28;20838;-73
2024/02/12 08:52:53;;;;;;;36.33;19.85;;;9.80;71.90;;;;;;5014417;28;20397;-74
2024/02/12 08:55:19;;;;;;;39.20;19.80;;;10.00;69.90;;;;;;5013919;28;20468;-75
2024/02/12 08:57:44;;;;;;;37.08;18.55;;;10.00;68.70;;;;;;5017085;28;20412;-75
2024/02/12 09:00:12;;;;;;;33.97;19.00;;;10.10;64.50;;;;;;5016670;28;20413;-75
2024/02/12 09:02:38;;;;;;;36.03;18.83;;;10.20;64.40;;;;;;5013292;28;20458;-74
2024/02/12 09:05:14;;;;;;;37.30;19.23;;;10.20;64.50;;;;;;5013718;28;20591;-75
2024/02/12 09:07:40;;;;;;;34.35;19.45;;;10.30;62.10;;;;;;5012990;28;20385;-75
2024/02/12 09:10:07;;;;;;;36.83;17.30;;;10.20;64.80;;;;;;5012412;28;20408;-76
2024/02/12 09:12:37;;;;;;;37.47;19.40;;;10.20;63.90;;;;;;5012215;28;20759;-73
2024/02/12 09:15:07;;;;;;;34.87;18.13;;;10.00;66.80;;;;;;5011930;28;20385;-74
2024/02/12 09:17:32;;;;;;;39.33;19.58;;;10.20;64.50;;;;;;5011073;28;20402;-75
2024/02/12 09:19:58;;;;;;;35.83;19.00;;;10.10;66.80;;;;;;5012395;28;20755;-74
2024/02/12 09:22:23;;;;;;;33.15;18.10;;;10.20;66.40;;;;;;5012464;28;20463;-75
2024/02/12 09:24:49;;;;;;;41.10;19.30;;;10.20;66.40;;;;;;5012068;28;20798;-73
2024/02/12 09:27:14;;;;;;;34.80;17.30;;;10.20;66.50;;;;;;5012303;28;20883;-76
2024/02/12 09:29:40;;;;;;;35.50;17.70;;;10.40;63.90;;;;;;5012654;28;20439;-73
2024/02/12 09:32:07;;;;;;;35.27;18.37;;;10.40;63.90;;;;;;5012732;28;20385;-74
2024/02/12 09:34:33;;;;;;;36.80;18.45;;;10.40;64.60;;;;;;5012343;28;20467;-74
2024/02/12 09:36:58;;;;;;;33.43;16.77;;;10.40;64.80;;;;;;5012569;28;20835;-74
2024/02/12 09:39:24;;;;;;;31.17;16.53;;;10.30;64.40;;;;;;5013333;28;20423;-75
2024/02/12 09:41:50;;;;;;;32.33;16.20;;;10.30;64.10;;;;;;5012262;28;20876;-76
2024/02/12 09:44:21;;;;;;;32.40;17.10;;;10.40;62.70;;;;;;5012317;28;20391;-74
2024/02/12 09:46:48;;;;;;;30.88;16.05;;;10.50;61.20;;;;;;5011816;28;20488;-74
2024/02/12 09:49:16;;;;;;;34.38;15.52;;;10.60;60.50;;;;;;5012118;28;20412;-73
2024/02/12 09:51:47;;;;;;;30.52;14.70;;;10.60;60.30;;;;;;5011872;28;20381;-72
2024/02/12 09:54:14;;;;;;;28.90;14.23;;;10.90;56.90;;;;;;5011860;28;20404;-76
2024/02/12 09:56:40;;;;;;;26.70;13.43;;;10.90;54.40;;;;;;5011354;28;20420;-72
2024/02/12 09:59:06;;;;;;;24.17;13.10;;;10.80;54.70;;;;;;5010153;28;20970;-75
2024/02/12 10:01:31;;;;;;;25.10;12.70;;;10.80;53.60;;;;;;5011745;28;20500;-74
2024/02/12 10:03:57;;;;;;;26.30;12.20;;;10.80;54.10;;;;;;5010982;28;20416;-73
2024/02/12 10:06:22;;;;;;;28.10;11.40;;;10.70;52.60;;;;;;5011822;28;20546;-74
2024/02/12 10:08:49;;;;;;;27.67;11.70;;;10.80;50.20;;;;;;5011967;28;20412;-75
2024/02/12 10:11:24;;;;;;;20.60;10.07;;;10.80;50.30;;;;;;5011554;28;20389;-74
2024/02/12 10:13:51;;;;;;;15.50;9.57;;;10.90;49.80;;;;;;5011070;28;20377;-73
2024/02/12 10:16:16;;;;;;;22.23;10.27;;;11.10;48.60;;;;;;5011108;28;20383;-74
2024/02/12 10:18:43;;;;;;;20.42;9.65;;;11.20;47.10;;;;;;5011827;28;20476;-73
2024/02/12 10:21:10;;;;;;;20.20;9.63;;;11.30;46.00;;;;;;5011656;28;20396;-74
2024/02/12 10:23:36;;;;;;;18.92;9.20;;;11.30;46.40;;;;;;5014256;28;20805;-75
2024/02/12 10:26:02;;;;;;;14.50;8.70;;;11.30;45.00;;;;;;5013804;28;20468;-74
2024/02/12 10:28:28;;;;;;;22.50;9.63;;;11.20;45.60;;;;;;5019285;28;20389;-74
2024/02/12 10:30:53;;;;;;;18.95;9.20;;;11.10;46.00;;;;;;5011327;28;20407;-74
2024/02/12 10:33:22;;;;;;;15.70;9.00;;;11.10;46.50;;;;;;5011572;28;20483;-73
2024/02/12 10:35:50;;;;;;;17.45;9.02;;;11.20;46.20;;;;;;5010998;28;20377;-74
2024/02/12 10:38:16;;;;;;;18.45;8.82;;;11.20;45.70;;;;;;5009767;28;20491;-71
2024/02/12 10:41:09;;;;;;;17.20;8.17;;;11.20;45.10;;;;;;5011541;28;20476;-73
2024/02/12 10:43:40;;;;;;;18.75;8.88;;;11.20;45.20;;;;;;5010192;28;20404;-73
2024/02/12 10:46:05;;;;;;;18.20;8.30;;;11.40;44.50;;;;;;5011960;28;20384;-74
2024/02/12 10:48:34;;;;;;;14.83;7.93;;;11.40;43.60;;;;;;5014738;28;20403;-74
2024/02/12 10:51:01;;;;;;;11.75;7.40;;;11.30;43.50;;;;;;5013460;28;20393;-74
2024/02/12 10:53:30;;;;;;;20.35;8.50;;;11.30;43.40;;;;;;5015216;28;20381;-73
2024/02/12 10:55:55;;;;;;;13.63;7.88;;;11.20;43.60;;;;;;5015041;28;20442;-76
2024/02/12 10:58:21;;;;;;;23.45;7.82;;;11.20;43.30;;;;;;5015173;28;20389;-72
2024/02/12 11:01:00;;;;;;;17.63;7.53;;;11.20;42.80;;;;;;5014994;28;20783;-72
2024/02/12 11:03:49;;;;;;;17.30;7.53;;;11.10;43.40;;;;;;5015394;28;20759;-74
2024/02/12 11:06:16;;;;;;;14.65;6.95;;;11.10;43.50;;;;;;5012267;28;20428;-74
2024/02/12 11:08:43;;;;;;;17.00;7.40;;;11.10;43.20;;;;;;5015320;28;20388;-75
2024/02/12 11:11:18;;;;;;;15.13;6.20;;;11.10;43.10;;;;;;5014324;28;20384;-73
2024/02/12 11:13:45;;;;;;;13.77;6.35;;;11.20;43.00;;;;;;5014333;28;20384;-74
2024/02/12 11:16:17;;;;;;;15.38;6.20;;;11.20;42.00;;;;;;5015210;28;20748;-72
2024/02/12 11:18:47;;;;;;;12.05;6.45;;;11.30;41.50;;;;;;5014826;28;20373;-75
2024/02/12 11:21:17;;;;;;;11.82;6.25;;;11.20;41.30;;;;;;5014722;28;20760;-73
2024/02/12 11:23:44;;;;;;;12.77;6.90;;;11.30;40.90;;;;;;5014371;28;20381;-74
2024/02/12 11:26:10;;;;;;;12.20;6.18;;;11.60;40.10;;;;;;5014464;28;20381;-74
2024/02/12 11:28:38;;;;;;;11.10;6.28;;;11.60;39.50;;;;;;5014302;28;20939;-74
2024/02/12 11:31:10;;;;;;;10.30;5.75;;;11.70;40.20;;;;;;5014111;28;20385;-73
2024/02/12 11:33:35;;;;;;;11.93;6.20;;;11.90;38.90;;;;;;5014598;28;20481;-73
2024/02/12 11:36:05;;;;;;;12.85;5.70;;;12.00;38.10;;;;;;5014292;28;20903;-73
2024/02/12 11:38:31;;;;;;;16.13;6.25;;;12.00;36.70;;;;;;5014180;28;20862;-73
2024/02/12 11:41:00;;;;;;;10.80;5.73;;;11.90;36.80;;;;;;5015225;28;20428;-75
2024/02/12 11:43:26;;;;;;;13.25;6.15;;;11.70;36.90;;;;;;5016444;28;20377;-72
2024/02/12 11:46:01;;;;;;;11.00;5.82;;;11.70;36.50;;;;;;5013824;28;20385;-73
2024/02/12 11:48:28;;;;;;;13.13;6.33;;;11.50;37.00;;;;;;5015596;28;20463;-73
2024/02/12 11:50:55;;;;;;;13.32;6.18;;;11.50;37.20;;;;;;5017961;28;20807;-73
2024/02/12 11:53:21;;;;;;;8.48;5.40;;;11.40;37.90;;;;;;5015669;28;20435;-75
2024/02/12 11:55:47;;;;;;;9.93;6.57;;;11.50;38.50;;;;;;5016670;28;20747;-74
2024/02/12 11:58:16;;;;;;;13.77;5.88;;;11.40;38.20;;;;;;5012909;28;20388;-73
2024/02/12 12:00:43;;;;;;;9.95;6.28;;;11.30;38.10;;;;;;5018547;28;20942;-73
2024/02/12 12:03:09;;;;;;;12.45;6.50;;;11.30;38.30;;;;;;5015688;28;20797;-73
2024/02/12 12:05:37;;;;;;;9.48;5.93;;;11.30;38.40;;;;;;5013369;28;20388;-74
2024/02/12 12:08:03;;;;;;;15.95;6.40;;;11.10;37.80;;;;;;5013861;28;20389;-74
2024/02/12 12:10:28;;;;;;;10.75;6.30;;;11.10;39.00;;;;;;5012881;28;20408;-73
2024/02/12 12:12:59;;;;;;;18.43;6.57;;;11.10;39.10;;;;;;5013709;28;20385;-74
2024/02/12 12:15:25;;;;;;;10.48;5.75;;;11.30;39.40;;;;;;5015095;28;20867;-73
2024/02/12 12:17:51;;;;;;;15.38;5.25;;;11.30;38.90;;;;;;5013562;28;20755;-75
2024/02/12 12:20:17;;;;;;;15.02;6.10;;;11.30;38.60;;;;;;5018071;28;20735;-73
2024/02/12 12:22:44;;;;;;;11.10;5.90;;;11.30;38.20;;;;;;5013356;28;20401;-74
2024/02/12 12:25:11;;;;;;;12.40;5.97;;;11.40;38.60;;;;;;5012583;28;20491;-74
2024/02/12 12:27:37;;;;;;;15.20;6.80;;;11.40;38.90;;;;;;5012967;28;20863;-74
2024/02/12 12:30:14;;;;;;;12.10;6.10;;;11.60;38.80;;;;;;5013952;28;20571;-73
2024/02/12 12:32:44;;;;;;;11.97;5.80;;;11.60;38.60;;;;;;5011508;28;20393;-72
2024/02/12 12:35:10;;;;;;;11.05;5.20;;;11.70;38.30;;;;;;5012972;28;20392;-73
2024/02/12 12:37:38;;;;;;;10.02;4.82;;;11.90;37.40;;;;;;5012005;28;20401;-73
2024/02/12 12:40:25;;;;;;;10.38;5.00;;;11.80;35.80;;;;;;5013453;28;20385;-75
2024/02/12 12:42:50;;;;;;;10.38;5.38;;;11.50;36.80;;;;;;5014377;28;20404;-73
2024/02/12 12:45:17;;;;;;;11.25;5.40;;;11.30;37.40;;;;;;5013050;28;20534;-75
2024/02/12 12:47:43;;;;;;;11.98;5.22;;;11.10;39.00;;;;;;5011760;28;20392;-73
2024/02/12 12:50:10;;;;;;;12.05;5.00;;;10.90;41.80;;;;;;5012703;28;20397;-74
2024/02/12 12:52:36;;;;;;;10.55;4.88;;;10.50;46.90;;;;;;5011214;28;20393;-74